• Join FlightAware (Why Join?)
  • Login
  • US Flag 
05:47AM EDT


 

Airport Tracker/Info


-or-


 

Live Flight TrackerFlight Track Log ✈ N516QS ✈ 03-Jul-2013 ✈ LYBE / BEG - KBGR

Flight Track Log - Related Links

Times and Time Zones

All times are in EDT time to prevent confusion due to time zone crossing. See the N516QS flight status page for this flight to view local times or setup timezone preferences in your user account.

Time Position Orientation Groundspeed Altitude Reporting Facility
EDT Latitude Longitude Course Direction KTS MPH feet Rate Location/Type
08:12AM 54.1206 -16.7089 305° West  Level Estimated
08:13AM 54.1337 -16.9195 276° West  Level Estimated
08:14AM 54.1464 -17.1302 276° West  Level Estimated
08:15AM 54.1587 -17.3410 276° West  Level Estimated
08:16AM 54.1706 -17.5520 276° West  Level Estimated
08:17AM 54.1822 -17.7631 275° West  Level Estimated
08:18AM 54.1934 -17.9743 275° West  Level Estimated
08:19AM 54.2042 -18.1856 275° West  Level Estimated
08:20AM 54.2147 -18.3970 275° West  Level Estimated
08:21AM 54.2248 -18.6085 275° West  Level Estimated
08:22AM 54.2345 -18.8201 275° West  Level Estimated
08:23AM 54.2439 -19.0319 274° West  Level Estimated
08:24AM 54.2528 -19.2437 274° West  Level Estimated
08:25AM 54.2615 -19.4556 274° West  Level Estimated
08:26AM 54.2697 -19.6676 274° West  Level Estimated
08:27AM 54.2776 -19.8797 274° West  Level Estimated
08:28AM 54.2851 -20.0918 274° West  Level Estimated
08:29AM 54.2922 -20.3040 273° West  Level Estimated
08:30AM 54.2989 -20.5163 273° West  Level Estimated
08:31AM 54.3053 -20.7287 273° West  Level Estimated
08:32AM 54.3113 -20.9411 273° West  Level Estimated
08:32AM 57.0000 -20.0000 285° West 457 526 43,000  Level ETMS Enhanced Traffic Management System
08:33AM 54.3169 -21.1536 273° West  Level Estimated
08:34AM 54.3222 -21.3662 273° West  Level Estimated
08:35AM 54.3271 -21.5788 272° West  Level Estimated
08:36AM 54.3316 -21.7914 272° West  Level Estimated
08:37AM 54.3357 -22.0041 272° West  Level Estimated
08:38AM 57.2161 -21.5876 283° West 457 526 43,000  Level FlightAware Transoceanic
08:39AM 57.2453 -21.8159 283° West 457 526 43,000  Level FlightAware Transoceanic
08:40AM 57.2741 -22.0446 283° West 457 526 43,000  Level FlightAware Transoceanic
08:41AM 57.3025 -22.2736 283° West 457 526 43,000  Level FlightAware Transoceanic
08:42AM 57.3305 -22.5030 283° West 457 526 43,000  Level FlightAware Transoceanic
08:43AM 57.3581 -22.7327 282° West 457 526 43,000  Level FlightAware Transoceanic
08:44AM 57.3852 -22.9627 282° West 457 526 43,000  Level FlightAware Transoceanic
08:45AM 57.4119 -23.1931 282° West 457 526 43,000  Level FlightAware Transoceanic
08:46AM 57.4383 -23.4238 282° West 457 526 43,000  Level FlightAware Transoceanic
08:47AM 57.4641 -23.6549 282° West 457 526 43,000  Level FlightAware Transoceanic
08:48AM 57.4896 -23.8862 281° West 457 526 43,000  Level FlightAware Transoceanic
08:49AM 57.5146 -24.1179 281° West 457 526 43,000  Level FlightAware Transoceanic
08:50AM 57.5392 -24.3500 281° West 457 526 43,000  Level FlightAware Transoceanic
08:51AM 57.5634 -24.5823 281° West 457 526 43,000  Level FlightAware Transoceanic
08:52AM 57.5872 -24.8149 281° West 457 526 43,000  Level FlightAware Transoceanic
08:53AM 57.6105 -25.0478 280° West 457 526 43,000  Level FlightAware Transoceanic
08:54AM 57.6334 -25.2811 280° West 457 526 43,000  Level FlightAware Transoceanic
08:55AM 57.6559 -25.5146 280° West 457 526 43,000  Level FlightAware Transoceanic
08:56AM 57.6779 -25.7484 280° West 457 526 43,000  Level FlightAware Transoceanic
08:57AM 57.6995 -25.9825 280° West 457 526 43,000  Level FlightAware Transoceanic
08:58AM 57.7207 -26.2168 280° West 457 526 43,000  Level FlightAware Transoceanic
08:59AM 57.7414 -26.4515 279° West 457 526 43,000  Level FlightAware Transoceanic
09:00AM 57.7617 -26.6864 279° West 457 526 43,000  Level FlightAware Transoceanic
09:01AM 57.7816 -26.9215 279° West 457 526 43,000  Level FlightAware Transoceanic
09:02AM 57.8010 -27.1569 279° West 457 526 43,000  Level FlightAware Transoceanic
09:03AM 57.8200 -27.3926 279° West 457 526 43,000  Level FlightAware Transoceanic
09:04AM 57.8386 -27.6285 278° West 457 526 43,000  Level FlightAware Transoceanic
09:05AM 57.8567 -27.8647 278° West 457 526 43,000  Level FlightAware Transoceanic
09:06AM 57.8744 -28.1011 278° West 457 526 43,000  Level FlightAware Transoceanic
09:07AM 57.8917 -28.3377 278° West 457 526 43,000  Level FlightAware Transoceanic
09:08AM 57.9085 -28.5745 278° West 457 526 43,000  Level FlightAware Transoceanic
09:09AM 57.9248 -28.8116 277° West 457 526 43,000  Level FlightAware Transoceanic
09:10AM 57.9407 -29.0489 277° West 457 526 43,000  Level FlightAware Transoceanic
09:11AM 57.9562 -29.2864 277° West 457 526 43,000  Level FlightAware Transoceanic
09:12AM 57.9713 -29.5240 277° West 457 526 43,000  Level FlightAware Transoceanic
09:13AM 57.9859 -29.7619 276° West 457 526 43,000  Level FlightAware Transoceanic
09:14AM 57.9997 -29.9946 276° West  Level FlightAware Approximate
09:15AM 58.0132 -30.2274 276° West  Level FlightAware Approximate
09:15AM 58.0000 -30.0000 264° West 457 526 43,000  Level ETMS Enhanced Traffic Management System
09:16AM 57.9868 -30.2218 264° West  Level FlightAware Approximate
09:17AM 57.9726 -30.4543 264° West  Level FlightAware Approximate
09:18AM 57.9580 -30.6866 263° West  Level FlightAware Approximate
09:19AM 57.9429 -30.9187 263° West  Level FlightAware Approximate
09:20AM 57.9274 -31.1506 263° West  Level FlightAware Approximate
09:21AM 57.8567 -32.1353 262° West 457 526 43,000  Level FlightAware Transoceanic
09:22AM 57.8386 -32.3715 262° West 457 526 43,000  Level FlightAware Transoceanic
09:23AM 57.8200 -32.6074 261° West 457 526 43,000  Level FlightAware Transoceanic
09:24AM 57.8010 -32.8430 261° West 457 526 43,000  Level FlightAware Transoceanic
09:25AM 57.7816 -33.0785 261° West 457 526 43,000  Level FlightAware Transoceanic
09:26AM 57.7617 -33.3136 261° West 457 526 43,000  Level FlightAware Transoceanic
09:27AM 57.7414 -33.5485 261° West 457 526 43,000  Level FlightAware Transoceanic
09:28AM 57.7207 -33.7832 260° West 457 526 43,000  Level FlightAware Transoceanic
09:29AM 57.6995 -34.0175 260° West 457 526 43,000  Level FlightAware Transoceanic
09:30AM 57.6779 -34.2516 260° West 457 526 43,000  Level FlightAware Transoceanic
09:31AM 57.6559 -34.4854 260° West 457 526 43,000  Level FlightAware Transoceanic
09:32AM 57.6334 -34.7189 260° West 457 526 43,000  Level FlightAware Transoceanic
09:33AM 57.6105 -34.9522 260° West 457 526 43,000  Level FlightAware Transoceanic
09:34AM 57.5872 -35.1851 259° West 457 526 43,000  Level FlightAware Transoceanic
09:35AM 57.5634 -35.4177 259° West 457 526 43,000  Level FlightAware Transoceanic
09:36AM 57.5392 -35.6500 259° West 457 526 43,000  Level FlightAware Transoceanic
09:37AM 57.5146 -35.8821 259° West 457 526 43,000  Level FlightAware Transoceanic
09:38AM 57.4896 -36.1138 259° West 457 526 43,000  Level FlightAware Transoceanic
09:39AM 57.4641 -36.3451 258° West 457 526 43,000  Level FlightAware Transoceanic
09:40AM 57.4383 -36.5762 258° West 457 526 43,000  Level FlightAware Transoceanic
09:41AM 57.4119 -36.8069 258° West 457 526 43,000  Level FlightAware Transoceanic
09:42AM 57.3852 -37.0373 258° West 457 526 43,000  Level FlightAware Transoceanic
09:43AM 57.3581 -37.2673 258° West 457 526 43,000  Level FlightAware Transoceanic
09:44AM 57.3305 -37.4971 257° West 457 526 43,000  Level FlightAware Transoceanic
09:45AM 57.3025 -37.7264 257° West 457 526 43,000  Level FlightAware Transoceanic
09:46AM 57.2741 -37.9554 257° West 457 526 43,000  Level FlightAware Transoceanic
09:47AM 57.2453 -38.1841 257° West 457 526 43,000  Level FlightAware Transoceanic
09:48AM 57.2161 -38.4124 257° West 457 526 43,000  Level FlightAware Transoceanic
09:49AM 57.1865 -38.6403 256° West 457 526 43,000  Level FlightAware Transoceanic
09:50AM 57.1564 -38.8679 256° West 457 526 43,000  Level FlightAware Transoceanic
09:51AM 57.1259 -39.0950 256° West 457 526 43,000  Level FlightAware Transoceanic
09:52AM 57.0951 -39.3218 256° West 457 526 43,000  Level FlightAware Transoceanic
09:53AM 57.0638 -39.5483 256° West 457 526 43,000  Level FlightAware Transoceanic
09:54AM 57.0321 -39.7743 255° West 457 526 43,000  Level FlightAware Transoceanic
09:55AM 57.0007 -39.9949 255° West  Level FlightAware Approximate
09:55AM 57.0000 -40.0000 255° West 474 545 43,000  Level ETMS Enhanced Traffic Management System
09:56AM 56.9688 -40.2149 255° West  Level FlightAware Approximate
09:57AM 56.9682 -40.2091 255° West  Level FlightAware Approximate
09:58AM 56.9346 -40.4281 254° West  Level FlightAware Approximate
09:59AM 56.9005 -40.6467 254° West  Level FlightAware Approximate
10:00AM 56.8660 -40.8649 254° West  Level FlightAware Approximate
10:01AM 56.7811 -41.3915 253° West 474 545 43,000  Level FlightAware Transoceanic
10:02AM 56.7431 -41.6218 253° West 474 545 43,000  Level FlightAware Transoceanic
10:03AM 56.7047 -41.8516 253° West 474 545 43,000  Level FlightAware Transoceanic
10:04AM 56.6659 -42.0810 253° West 474 545 43,000  Level FlightAware Transoceanic
10:05AM 56.6266 -42.3099 253° West 474 545 43,000  Level FlightAware Transoceanic
10:06AM 56.5869 -42.5383 252° West 474 545 43,000  Level FlightAware Transoceanic
10:07AM 56.5469 -42.7662 252° West 474 545 43,000  Level FlightAware Transoceanic
10:08AM 56.5064 -42.9937 252° West 474 545 43,000  Level FlightAware Transoceanic
10:09AM 56.4654 -43.2207 252° West 474 545 43,000  Level FlightAware Transoceanic
10:10AM 56.4241 -43.4471 252° West 474 545 43,000  Level FlightAware Transoceanic
10:11AM 56.3824 -43.6731 251° West 474 545 43,000  Level FlightAware Transoceanic
10:12AM 56.3402 -43.8986 251° West 474 545 43,000  Level FlightAware Transoceanic
10:13AM 56.2977 -44.1236 251° West 474 545 43,000  Level FlightAware Transoceanic
10:14AM 56.2547 -44.3480 251° West 474 545 43,000  Level FlightAware Transoceanic
10:15AM 56.2113 -44.5720 251° West 474 545 43,000  Level FlightAware Transoceanic
10:16AM 56.1675 -44.7955 251° West 474 545 43,000  Level FlightAware Transoceanic
10:17AM 56.1234 -45.0184 250° West 474 545 43,000  Level FlightAware Transoceanic
10:18AM 56.0788 -45.2409 250° West 474 545 43,000  Level FlightAware Transoceanic
10:19AM 56.0338 -45.4628 250° West 474 545 43,000  Level FlightAware Transoceanic
10:20AM 55.9884 -45.6842 250° West 474 545 43,000  Level FlightAware Transoceanic
10:21AM 55.9427 -45.9051 250° West 474 545 43,000  Level FlightAware Transoceanic
10:22AM 55.8965 -46.1254 249° West 474 545 43,000  Level FlightAware Transoceanic
10:23AM 55.8499 -46.3453 249° West 474 545 43,000  Level FlightAware Transoceanic
10:24AM 55.8030 -46.5646 249° West 474 545 43,000  Level FlightAware Transoceanic
10:25AM 55.7557 -46.7834 249° West 474 545 43,000  Level FlightAware Transoceanic
10:26AM 55.7079 -47.0016 249° West 474 545 43,000  Level FlightAware Transoceanic
10:27AM 55.6598 -47.2193 249° West 474 545 43,000  Level FlightAware Transoceanic
10:28AM 55.6113 -47.4365 248° West 474 545 43,000  Level FlightAware Transoceanic
10:29AM 55.5625 -47.6531 248° West 474 545 43,000  Level FlightAware Transoceanic
10:30AM 55.5132 -47.8692 248° West 474 545 43,000  Level FlightAware Transoceanic
10:31AM 55.4636 -48.0847 248° West 474 545 43,000  Level FlightAware Transoceanic
10:32AM 55.4135 -48.2997 248° West 474 545 43,000  Level FlightAware Transoceanic
10:33AM 55.3631 -48.5142 247° West 474 545 43,000  Level FlightAware Transoceanic
10:34AM 55.3124 -48.7281 247° West 474 545 43,000  Level FlightAware Transoceanic
10:35AM 55.2612 -48.9415 247° West 474 545 43,000  Level FlightAware Transoceanic
10:36AM 55.2097 -49.1543 247° West 474 545 43,000  Level FlightAware Transoceanic
10:37AM 55.1578 -49.3666 247° West 474 545 43,000  Level FlightAware Transoceanic
10:38AM 55.1056 -49.5783 247° West 474 545 43,000  Level FlightAware Transoceanic
10:39AM 55.0530 -49.7894 246° West 474 545 43,000  Level FlightAware Transoceanic
10:40AM 55.0031 -49.9876 246° West  Level FlightAware Approximate
10:41AM 54.9530 -50.1854 246° West  Level FlightAware Approximate
10:42AM 54.9638 -50.1784 251° West  Level FlightAware Approximate
10:42AM 55.0000 -50.0000 251° West 446 513 43,000  Level ETMS Enhanced Traffic Management System
10:43AM 54.9222 -50.3819 250° West  Level FlightAware Approximate
10:44AM 54.8802 -50.5850 250° West  Level FlightAware Approximate
10:45AM 54.8378 -50.7876 250° West  Level FlightAware Approximate
10:46AM 54.7952 -50.9898 250° West  Level FlightAware Approximate
10:47AM 54.7521 -51.1916 250° West  Level FlightAware Approximate
10:48AM 54.6596 -51.6191 249° West 446 513 43,000  Level FlightAware Transoceanic
10:49AM 54.6156 -51.8195 249° West 446 513 43,000  Level FlightAware Transoceanic
10:50AM 54.5712 -52.0196 249° West 446 513 43,000  Level FlightAware Transoceanic
10:51AM 54.5265 -52.2192 249° West 446 513 43,000  Level FlightAware Transoceanic
10:52AM 54.4814 -52.4183 249° West 446 513 43,000  Level FlightAware Transoceanic
10:53AM 54.4361 -52.6170 248° West 446 513 43,000  Level FlightAware Transoceanic
10:54AM 54.3904 -52.8153 248° West 446 513 43,000  Level FlightAware Transoceanic
10:55AM 54.3444 -53.0131 248° West 446 513 43,000  Level FlightAware Transoceanic
10:56AM 54.2980 -53.2105 248° West 446 513 43,000  Level FlightAware Transoceanic
10:57AM 54.2514 -53.4074 248° West 446 513 43,000  Level FlightAware Transoceanic
10:58AM 54.2044 -53.6039 248° West 446 513 43,000  Level FlightAware Transoceanic
10:59AM 54.1571 -53.7999 248° West 446 513 43,000  Level FlightAware Transoceanic
11:00AM 54.1095 -53.9955 247° West 446 513 43,000  Level FlightAware Transoceanic
11:01AM 54.0615 -54.1906 247° West 446 513 43,000  Level FlightAware Transoceanic
11:01AM 54.0500 -54.1833 251° West 460 529 43,000  Level Gander Center
11:02AM 54.0133 -54.3853 247° West 446 513 43,000  Level FlightAware Transoceanic
11:02AM 53.9833 -54.4000 242° Southwest 460 529 43,000  Level Gander Center
11:03AM 53.9647 -54.5796 247° West 446 513 43,000  Level FlightAware Transoceanic
11:03AM 53.9500 -54.5667 251° West 450 518 43,000  Level Gander Center
11:04AM 53.9159 -54.7733 247° West 446 513 43,000  Level FlightAware Transoceanic
11:04AM 53.8833 -54.7833 243° Southwest 460 529 43,000  Level Gander Center
11:05AM 53.8667 -54.9666 247° West  Level FlightAware Approximate
11:05AM 53.8000 -54.9333 227° Southwest 470 541 43,000  Level Gander Center
11:06AM 53.8266 -55.1657 251° West  Level FlightAware Approximate
11:06AM 53.7167 -55.1167 233° Southwest 460 529 43,000  Level Gander Center
11:07AM 53.6667 -55.2167 230° Southwest 460 529 43,000  Level Moncton Center
11:08AM 53.5500 -55.4500 230° Southwest 460 529 43,000  Level Gander Center
11:09AM 53.4833 -55.6333 239° Southwest 460 529 43,000  Level Gander Center
11:10AM 53.3833 -55.7833 222° Southwest 470 541 43,000  Level Gander Center
11:11AM 53.3500 -55.9000 244° Southwest 460 529 43,000  Level Moncton Center
11:12AM 53.2500 -56.0500 222° Southwest 470 541 43,000  Level Moncton Center
11:12AM 53.1833 -56.2000 233° Southwest 460 529 43,000  Level Gander Center
11:13AM 53.1000 -56.3833 233° Southwest 460 529 43,000  Level Gander Center
11:14AM 53.0167 -56.5333 227° Southwest 460 529 43,000  Level Gander Center
11:15AM 52.9167 -56.7000 225° Southwest 470 541 43,000  Level Gander Center
11:16AM 52.9000 -56.7667 248° West 470 541 43,000  Level Gander Center
11:17AM 52.8333 -56.8833 227° Southwest 470 541 43,000  Level Moncton Center
11:18AM 52.7500 -57.0333 227° Southwest 470 541 43,000  Level Moncton Center
11:18AM 52.6667 -57.1667 224° Southwest 470 541 43,000  Level Gander Center
11:19AM 52.6000 -57.3500 239° Southwest 460 529 43,000  Level Gander Center
11:20AM 52.5500 -57.4333 225° Southwest 470 541 43,000  Level Gander Center
11:21AM 52.4667 -57.5833 228° Southwest 470 541 43,000  Level Gander Center
11:22AM 52.3667 -57.7500 226° Southwest 470 541 43,000  Level Gander Center
11:23AM 52.3000 -57.8833 231° Southwest 470 541 43,000  Level Gander Center
11:24AM 52.2333 -58.0000 227° Southwest 470 541 43,000  Level Moncton Center
11:25AM 52.1500 -58.1500 228° Southwest 470 541 43,000  Level Moncton Center
11:26AM 52.0667 -58.3167 231° Southwest 460 529 43,000  Level Moncton Center
11:26AM 51.9833 -58.4500 225° Southwest 460 529 43,000  Level Gander Center
11:27AM 51.9500 -58.5500 242° Southwest 470 541 43,000  Level Gander Center
11:28AM 51.8667 -58.6833 225° Southwest 470 541 43,000  Level Gander Center
11:29AM 51.8000 -58.8000 227° Southwest 470 541 43,000  Level Moncton Center
11:30AM 51.7167 -58.9333 225° Southwest 470 541 43,000  Level Moncton Center
11:31AM 51.6167 -59.1167 229° Southwest 480 552 43,000  Level Moncton Center
11:31AM 51.5333 -59.2333 221° Southwest 480 552 43,000  Level Gander Center
11:32AM 51.5000 -59.3167 237° Southwest 470 541 43,000  Level Gander Center
11:33AM 51.4500 -59.4333 236° Southwest 470 541 43,000  Level Moncton Center
11:34AM 51.3500 -59.5667 220° Southwest 470 541 43,000  Level Moncton Center
11:35AM 51.2500 -59.7167 223° Southwest 470 541 43,000  Level Moncton Center
11:36AM 51.1833 -59.8833 238° Southwest 470 541 43,000  Level Moncton Center
11:37AM 51.0833 -60.0333 223° Southwest 470 541 43,000  Level Moncton Center
11:38AM 51.0000 -60.1667 225° Southwest 470 541 43,000  Level Moncton Center
11:39AM 50.9167 -60.3333 232° Southwest 470 541 43,000  Level Moncton Center
11:40AM 50.8167 -60.4833 223° Southwest 470 541 43,000  Level Moncton Center
11:41AM 50.7167 -60.6500 227° Southwest 460 529 43,000  Level Moncton Center
11:42AM 50.6333 -60.7833 225° Southwest 470 541 43,000  Level Moncton Center
11:43AM 50.5500 -60.9167 225° Southwest 470 541 43,000  Level Moncton Center
11:44AM 50.4667 -61.0500 226° Southwest 460 529 43,000  Level Moncton Center
11:45AM 50.3667 -61.2167 227° Southwest 460 529 43,000  Level Moncton Center
11:46AM 50.2833 -61.3500 226° Southwest 460 529 43,000  Level Moncton Center
11:47AM 50.2000 -61.5000 229° Southwest 460 529 43,000  Level Moncton Center
11:48AM 50.1000 -61.6500 224° Southwest 460 529 43,000  Level Moncton Center
11:49AM 50.0167 -61.7833 226° Southwest 460 529 43,000  Level Moncton Center
11:50AM 49.9167 -61.9333 224° Southwest 460 529 43,000  Level Moncton Center
11:51AM 49.8333 -62.0667 226° Southwest 460 529 43,000  Level Moncton Center
11:52AM 49.7333 -62.2167 224° Southwest 460 529 43,000  Level Moncton Center
11:53AM 49.6167 -62.4167 228° Southwest 460 529 43,000  Level Gander Center
11:54AM 49.5333 -62.5500 226° Southwest 460 529 43,000  Level Gander Center
11:55AM 49.4500 -62.6667 222° Southwest 460 529 43,000  Level Gander Center
11:56AM 49.3833 -62.7500 219° Southwest 460 529 43,000  Level Moncton Center
11:57AM 49.3000 -62.9000 230° Southwest 450 518 43,000  Level Moncton Center
11:58AM 49.2000 -63.0333 221° Southwest 450 518 43,000  Level Moncton Center
11:59AM 49.1167 -63.1667 226° Southwest 450 518 43,000  Level Moncton Center
12:00PM 49.0167 -63.3000 221° Southwest 450 518 43,000  Level Moncton Center
12:01PM 48.9333 -63.4500 230° Southwest 450 518 43,000  Level Moncton Center
12:02PM 48.8500 -63.5833 227° Southwest 450 518 43,000  Level Moncton Center
12:03PM 48.7500 -63.7167 221° Southwest 450 518 43,000  Level Moncton Center
12:04PM 48.6500 -63.8333 218° Southwest 450 518 43,000  Level Moncton Center
12:05PM 48.5667 -63.9667 227° Southwest 450 518 43,000  Level Moncton Center
12:06PM 48.4833 -64.1000 227° Southwest 440 506 43,000  Level Moncton Center
12:07PM 48.3833 -64.2167 218° Southwest 450 518 43,000  Level Moncton Center
12:08PM 48.3000 -64.3500 227° Southwest 450 518 43,000  Level Moncton Center
12:09PM 48.2167 -64.4667 223° Southwest 450 518 43,000  Level Moncton Center
12:10PM 48.1333 -64.6000 227° Southwest 440 506 43,000  Level Moncton Center
12:11PM 48.0333 -64.7167 218° Southwest 430 495 43,000  Level Moncton Center
12:12PM 47.9500 -64.8500 227° Southwest 430 495 43,000  Level Moncton Center
12:13PM 47.8667 -64.9667 223° Southwest 440 506 43,000  Level Moncton Center
12:14PM 47.7667 -65.1000 222° Southwest 440 506 43,000  Level Moncton Center
12:15PM 47.6833 -65.2167 223° Southwest 440 506 43,000  Level Moncton Center
12:16PM 47.6000 -65.3333 223° Southwest 440 506 43,000  Level Moncton Center
12:17PM 47.5167 -65.4667 227° Southwest 440 506 43,000  Level Moncton Center
12:18PM 47.4167 -65.5833 218° Southwest 440 506 43,000  Level Moncton Center
12:19PM 47.3167 -65.7000 218° Southwest 440 506 43,000  Level Moncton Center
12:20PM 47.2333 -65.8333 227° Southwest 440 506 43,000  Level Moncton Center
12:21PM 47.1333 -65.9500 218° Southwest 440 506 43,000  Level Moncton Center
12:22PM 47.0500 -66.0667 224° Southwest 430 495 43,000  Level Moncton Center
12:23PM 46.9667 -66.1833 224° Southwest 430 495 43,000 -600 Level Moncton Center
12:24PM 46.8833 -66.3000 224° Southwest 430 495 41,900 -1,260 Descending Moncton Center
12:25PM 46.8000 -66.4333 228° Southwest 410 472 40,500 -1,500 Descending Moncton Center
12:26PM 46.7167 -66.5500 224° Southwest 410 472 38,900 -1,500 Descending Moncton Center
12:27PM 46.6167 -66.6333 210° Southwest 400 460 37,500 -1,500 Descending Moncton Center
12:28PM 46.5333 -66.7500 224° Southwest 410 472 36,000 -1,500 Descending Moncton Center
12:29PM 46.4500 -66.8667 224° Southwest 420 483 34,500 -1,500 Descending Moncton Center
12:30PM 46.3667 -66.9667 220° Southwest 420 483 33,000 -1,560 Descending Moncton Center
12:31PM 46.2833 -67.1167 231° Southwest 430 495 31,400 -1,560 Descending Moncton Center
12:32PM 46.1833 -67.2000 210° Southwest 430 495 29,900 -1,620 Descending Moncton Center
12:33PM 46.0833 -67.3333 223° Southwest 450 518 28,200 -1,740 Descending Moncton Center
12:34PM 46.0000 -67.4500 224° Southwest 440 506 26,500 -1,800 Descending Moncton Center
12:35PM 45.9000 -67.5667 219° Southwest 440 506 24,700 -1,800 Descending Moncton Center
12:36PM 45.8167 -67.6833 224° Southwest 430 495 23,000 -1,860 Descending Moncton Center
12:37PM 45.7167 -67.7833 215° Southwest 420 483 21,000 -2,100 Descending Moncton Center
12:38PM 45.6333 -67.8833 220° Southwest 410 472 18,900 -1,920 Descending Moncton Center
12:39PM 45.5500 -67.9833 220° Southwest 410 472 17,200 -1,980 Descending Moncton Center
12:40PM 45.4667 -68.1000 224° Southwest 390 449 15,000 -2,040 Descending Moncton Center
12:40PM 45.4386 -68.1594 236° Southwest 406 467 13,800 -2,040 Descending Boston Center
12:41PM 45.3608 -68.2539 220° Southwest 394 453 11,600 -1,980 Descending Boston Center
12:42PM 45.2908 -68.3386 220° Southwest 368 423 9,900 -1,380 Descending Boston Center
12:43PM 45.2217 -68.3908 208° Southwest 320 368 8,900 -1,200 Descending Boston Center
12:44PM 45.1503 -68.4339 203° Southwest 291 335 7,600 -1,260 Descending Boston Center
12:45PM 45.0831 -68.4800 206° Southwest 279 321 6,400 -1,200 Descending Boston Center
12:46PM 45.0139 -68.5228 204° Southwest 274 315 5,200 -1,200 Descending Boston Center
12:47PM 44.9486 -68.5653 205° Southwest 269 310 4,000 -600 Descending Boston Center
12:48PM 44.8853 -68.6047 204° Southwest 264 304 4,000  Level Boston Center
12:49PM 44.8219 -68.6469 205° Southwest 258 297 4,000  Level Boston Center
12:50PM 44.7689 -68.6794 204° Southwest 242 278 4,000 -300 Level Boston Center
12:51PM 44.7292 -68.6761 177° South 213 245 3,400 -720 Descending Boston Center
12:52PM 44.7544 -68.6833 349° North 34 39 2,600 -840 Descending Boston Center
12:53PM 44.7481 -68.7422 261° West 88 101 1,800 -720 Descending Boston Center
12:54PM 44.7656 -68.7733 308° West 111 128 1,200 -780 Descending Boston Center
12:55PM 44.7961 -68.8125 318° Northwest 122 140 300 -900 Descending Boston Center